sensor_id;sensor_type;location;lat;lon;timestamp;P1;durP1;ratioP1;P2;durP2;ratioP2
3949;SDS011;53057;50.988;6.314;2024-01-30T00:01:38;30.90;;;17.73;;
3949;SDS011;53057;50.988;6.314;2024-01-30T00:04:05;43.97;;;21.70;;
3949;SDS011;53057;50.988;6.314;2024-01-30T00:06:32;32.13;;;19.83;;
3949;SDS011;53057;50.988;6.314;2024-01-30T00:08:58;35.50;;;20.13;;
3949;SDS011;53057;50.988;6.314;2024-01-30T00:11:25;42.53;;;21.33;;
3949;SDS011;53057;50.988;6.314;2024-01-30T00:13:52;28.03;;;16.67;;
3949;SDS011;53057;50.988;6.314;2024-01-30T00:16:22;38.57;;;19.13;;
3949;SDS011;53057;50.988;6.314;2024-01-30T00:18:51;31.90;;;19.67;;
3949;SDS011;53057;50.988;6.314;2024-01-30T00:21:20;27.37;;;18.07;;
3949;SDS011;53057;50.988;6.314;2024-01-30T00:23:47;25.80;;;17.77;;
3949;SDS011;53057;50.988;6.314;2024-01-30T00:26:14;30.33;;;19.50;;
3949;SDS011;53057;50.988;6.314;2024-01-30T00:28:43;28.87;;;16.97;;
3949;SDS011;53057;50.988;6.314;2024-01-30T00:31:10;32.23;;;18.83;;
3949;SDS011;53057;50.988;6.314;2024-01-30T00:33:40;30.97;;;15.97;;
3949;SDS011;53057;50.988;6.314;2024-01-30T00:36:07;22.00;;;14.57;;
3949;SDS011;53057;50.988;6.314;2024-01-30T00:38:34;25.07;;;15.20;;
3949;SDS011;53057;50.988;6.314;2024-01-30T00:41:04;24.57;;;16.33;;
3949;SDS011;53057;50.988;6.314;2024-01-30T00:43:31;32.67;;;15.73;;
3949;SDS011;53057;50.988;6.314;2024-01-30T00:45:58;30.63;;;16.57;;
3949;SDS011;53057;50.988;6.314;2024-01-30T00:48:25;29.70;;;16.40;;
3949;SDS011;53057;50.988;6.314;2024-01-30T00:50:52;46.67;;;16.70;;
3949;SDS011;53057;50.988;6.314;2024-01-30T00:53:18;31.70;;;16.50;;
3949;SDS011;53057;50.988;6.314;2024-01-30T00:55:45;26.70;;;15.93;;
3949;SDS011;53057;50.988;6.314;2024-01-30T00:58:12;24.73;;;16.70;;
3949;SDS011;53057;50.988;6.314;2024-01-30T01:00:39;31.80;;;16.40;;
3949;SDS011;53057;50.988;6.314;2024-01-30T01:03:05;31.40;;;17.27;;
3949;SDS011;53057;50.988;6.314;2024-01-30T01:05:32;27.07;;;17.60;;
3949;SDS011;53057;50.988;6.314;2024-01-30T01:07:59;35.83;;;17.33;;
3949;SDS011;53057;50.988;6.314;2024-01-30T01:10:25;25.13;;;16.37;;
3949;SDS011;53057;50.988;6.314;2024-01-30T01:12:54;26.30;;;15.67;;
3949;SDS011;53057;50.988;6.314;2024-01-30T01:15:20;32.73;;;19.07;;
3949;SDS011;53057;50.988;6.314;2024-01-30T01:17:47;28.53;;;16.60;;
3949;SDS011;53057;50.988;6.314;2024-01-30T01:20:14;30.10;;;18.00;;
3949;SDS011;53057;50.988;6.314;2024-01-30T01:22:41;30.23;;;15.43;;
3949;SDS011;53057;50.988;6.314;2024-01-30T01:25:08;27.77;;;16.13;;
3949;SDS011;53057;50.988;6.314;2024-01-30T01:27:35;27.50;;;16.97;;
3949;SDS011;53057;50.988;6.314;2024-01-30T01:30:10;28.93;;;18.57;;
3949;SDS011;53057;50.988;6.314;2024-01-30T01:32:38;34.30;;;17.93;;
3949;SDS011;53057;50.988;6.314;2024-01-30T01:35:05;28.90;;;16.30;;
3949;SDS011;53057;50.988;6.314;2024-01-30T01:37:32;31.37;;;17.40;;
3949;SDS011;53057;50.988;6.314;2024-01-30T01:39:59;27.67;;;17.77;;
3949;SDS011;53057;50.988;6.314;2024-01-30T01:42:26;32.47;;;19.23;;
3949;SDS011;53057;50.988;6.314;2024-01-30T01:44:53;35.13;;;19.03;;
3949;SDS011;53057;50.988;6.314;2024-01-30T01:47:19;36.77;;;20.17;;
3949;SDS011;53057;50.988;6.314;2024-01-30T01:49:46;37.10;;;20.13;;
3949;SDS011;53057;50.988;6.314;2024-01-30T01:52:14;38.93;;;21.17;;
3949;SDS011;53057;50.988;6.314;2024-01-30T01:54:40;40.73;;;19.60;;
3949;SDS011;53057;50.988;6.314;2024-01-30T01:57:07;32.60;;;18.50;;
3949;SDS011;53057;50.988;6.314;2024-01-30T01:59:34;34.53;;;20.23;;
3949;SDS011;53057;50.988;6.314;2024-01-30T02:02:02;28.27;;;15.67;;
3949;SDS011;53057;50.988;6.314;2024-01-30T02:04:30;27.90;;;19.30;;
3949;SDS011;53057;50.988;6.314;2024-01-30T02:06:56;28.33;;;16.73;;
3949;SDS011;53057;50.988;6.314;2024-01-30T02:09:24;38.97;;;21.80;;
3949;SDS011;53057;50.988;6.314;2024-01-30T02:11:50;34.47;;;19.80;;
3949;SDS011;53057;50.988;6.314;2024-01-30T02:14:17;39.63;;;18.83;;
3949;SDS011;53057;50.988;6.314;2024-01-30T02:16:44;33.47;;;19.70;;
3949;SDS011;53057;50.988;6.314;2024-01-30T02:19:11;29.20;;;18.57;;
3949;SDS011;53057;50.988;6.314;2024-01-30T02:21:38;35.70;;;19.90;;
3949;SDS011;53057;50.988;6.314;2024-01-30T02:24:05;27.77;;;18.60;;
3949;SDS011;53057;50.988;6.314;2024-01-30T02:26:32;26.37;;;18.07;;
3949;SDS011;53057;50.988;6.314;2024-01-30T02:28:58;30.03;;;19.33;;
3949;SDS011;53057;50.988;6.314;2024-01-30T02:31:25;31.83;;;19.93;;
3949;SDS011;53057;50.988;6.314;2024-01-30T02:33:52;27.33;;;17.30;;
3949;SDS011;53057;50.988;6.314;2024-01-30T02:36:19;28.67;;;16.90;;
3949;SDS011;53057;50.988;6.314;2024-01-30T02:38:45;34.73;;;18.10;;
3949;SDS011;53057;50.988;6.314;2024-01-30T02:41:13;31.50;;;19.67;;
3949;SDS011;53057;50.988;6.314;2024-01-30T02:43:40;27.07;;;17.47;;
3949;SDS011;53057;50.988;6.314;2024-01-30T02:46:06;27.73;;;17.23;;
3949;SDS011;53057;50.988;6.314;2024-01-30T02:48:33;24.47;;;15.67;;
3949;SDS011;53057;50.988;6.314;2024-01-30T02:51:00;22.63;;;13.00;;
3949;SDS011;53057;50.988;6.314;2024-01-30T02:53:26;35.70;;;20.07;;
3949;SDS011;53057;50.988;6.314;2024-01-30T02:55:53;26.70;;;15.27;;
3949;SDS011;53057;50.988;6.314;2024-01-30T02:58:20;27.00;;;16.10;;
3949;SDS011;53057;50.988;6.314;2024-01-30T03:00:46;19.70;;;12.87;;
3949;SDS011;53057;50.988;6.314;2024-01-30T03:03:13;34.47;;;16.83;;
3949;SDS011;53057;50.988;6.314;2024-01-30T03:05:40;24.90;;;13.50;;
3949;SDS011;53057;50.988;6.314;2024-01-30T03:08:07;20.73;;;13.70;;
3949;SDS011;53057;50.988;6.314;2024-01-30T03:10:34;29.10;;;16.30;;
3949;SDS011;53057;50.988;6.314;2024-01-30T03:13:00;30.93;;;14.37;;
3949;SDS011;53057;50.988;6.314;2024-01-30T03:15:27;30.53;;;16.87;;
3949;SDS011;53057;50.988;6.314;2024-01-30T03:17:54;30.37;;;15.60;;
3949;SDS011;53057;50.988;6.314;2024-01-30T03:20:20;27.93;;;13.20;;
3949;SDS011;53057;50.988;6.314;2024-01-30T03:22:47;34.93;;;17.73;;
3949;SDS011;53057;50.988;6.314;2024-01-30T03:25:14;25.80;;;15.50;;
3949;SDS011;53057;50.988;6.314;2024-01-30T03:27:40;38.10;;;20.03;;
3949;SDS011;53057;50.988;6.314;2024-01-30T03:30:07;40.30;;;19.93;;
3949;SDS011;53057;50.988;6.314;2024-01-30T03:32:34;42.63;;;17.20;;
3949;SDS011;53057;50.988;6.314;2024-01-30T03:35:01;40.33;;;18.43;;
3949;SDS011;53057;50.988;6.314;2024-01-30T03:37:28;27.00;;;15.40;;
3949;SDS011;53057;50.988;6.314;2024-01-30T03:39:54;34.33;;;17.63;;
3949;SDS011;53057;50.988;6.314;2024-01-30T03:42:21;25.23;;;14.00;;
3949;SDS011;53057;50.988;6.314;2024-01-30T03:44:48;31.77;;;19.87;;
3949;SDS011;53057;50.988;6.314;2024-01-30T03:47:18;21.80;;;14.20;;
3949;SDS011;53057;50.988;6.314;2024-01-30T03:49:45;20.67;;;11.17;;
3949;SDS011;53057;50.988;6.314;2024-01-30T03:52:11;34.13;;;17.53;;
3949;SDS011;53057;50.988;6.314;2024-01-30T03:54:38;22.13;;;10.50;;
3949;SDS011;53057;50.988;6.314;2024-01-30T03:57:05;28.80;;;13.67;;
3949;SDS011;53057;50.988;6.314;2024-01-30T03:59:32;29.53;;;15.23;;
3949;SDS011;53057;50.988;6.314;2024-01-30T04:01:59;15.90;;;10.20;;
3949;SDS011;53057;50.988;6.314;2024-01-30T04:04:26;20.67;;;11.50;;
3949;SDS011;53057;50.988;6.314;2024-01-30T04:06:53;20.13;;;11.37;;
3949;SDS011;53057;50.988;6.314;2024-01-30T04:09:20;15.70;;;8.70;;
3949;SDS011;53057;50.988;6.314;2024-01-30T04:11:47;33.03;;;15.13;;
3949;SDS011;53057;50.988;6.314;2024-01-30T04:14:14;21.50;;;13.93;;
3949;SDS011;53057;50.988;6.314;2024-01-30T04:16:40;18.90;;;11.87;;
3949;SDS011;53057;50.988;6.314;2024-01-30T04:19:07;18.07;;;12.17;;
3949;SDS011;53057;50.988;6.314;2024-01-30T04:21:34;26.67;;;12.73;;
3949;SDS011;53057;50.988;6.314;2024-01-30T04:24:00;21.20;;;11.10;;
3949;SDS011;53057;50.988;6.314;2024-01-30T04:26:27;28.43;;;13.87;;
3949;SDS011;53057;50.988;6.314;2024-01-30T04:28:54;17.93;;;10.10;;
3949;SDS011;53057;50.988;6.314;2024-01-30T04:31:20;19.67;;;10.00;;
3949;SDS011;53057;50.988;6.314;2024-01-30T04:33:47;13.63;;;9.03;;
3949;SDS011;53057;50.988;6.314;2024-01-30T04:36:14;20.70;;;9.50;;
3949;SDS011;53057;50.988;6.314;2024-01-30T04:38:41;16.83;;;8.97;;
3949;SDS011;53057;50.988;6.314;2024-01-30T04:41:07;13.87;;;9.83;;
3949;SDS011;53057;50.988;6.314;2024-01-30T04:43:34;21.93;;;12.10;;
3949;SDS011;53057;50.988;6.314;2024-01-30T04:46:01;19.53;;;11.33;;
3949;SDS011;53057;50.988;6.314;2024-01-30T04:48:28;19.90;;;13.23;;
3949;SDS011;53057;50.988;6.314;2024-01-30T04:50:55;17.00;;;10.20;;
3949;SDS011;53057;50.988;6.314;2024-01-30T04:53:22;18.00;;;12.50;;
3949;SDS011;53057;50.988;6.314;2024-01-30T04:55:49;16.93;;;11.10;;
3949;SDS011;53057;50.988;6.314;2024-01-30T04:58:16;20.63;;;12.97;;
3949;SDS011;53057;50.988;6.314;2024-01-30T05:00:42;24.43;;;12.20;;
3949;SDS011;53057;50.988;6.314;2024-01-30T05:03:09;37.13;;;21.03;;
3949;SDS011;53057;50.988;6.314;2024-01-30T05:05:36;15.93;;;11.10;;
3949;SDS011;53057;50.988;6.314;2024-01-30T05:08:03;18.13;;;9.53;;
3949;SDS011;53057;50.988;6.314;2024-01-30T05:10:29;19.97;;;13.00;;
3949;SDS011;53057;50.988;6.314;2024-01-30T05:12:56;20.43;;;12.20;;
3949;SDS011;53057;50.988;6.314;2024-01-30T05:15:23;14.33;;;9.17;;
3949;SDS011;53057;50.988;6.314;2024-01-30T05:17:50;22.97;;;17.60;;
3949;SDS011;53057;50.988;6.314;2024-01-30T05:20:16;11.27;;;7.90;;
3949;SDS011;53057;50.988;6.314;2024-01-30T05:22:43;25.33;;;15.73;;
3949;SDS011;53057;50.988;6.314;2024-01-30T05:25:12;26.43;;;19.53;;
3949;SDS011;53057;50.988;6.314;2024-01-30T05:27:39;28.30;;;17.67;;
3949;SDS011;53057;50.988;6.314;2024-01-30T05:30:06;25.47;;;13.83;;
3949;SDS011;53057;50.988;6.314;2024-01-30T05:32:33;16.40;;;11.43;;
3949;SDS011;53057;50.988;6.314;2024-01-30T05:35:00;28.50;;;15.63;;
3949;SDS011;53057;50.988;6.314;2024-01-30T05:37:27;26.43;;;18.27;;
3949;SDS011;53057;50.988;6.314;2024-01-30T05:39:54;46.80;;;32.53;;
3949;SDS011;53057;50.988;6.314;2024-01-30T05:42:21;17.60;;;12.87;;
3949;SDS011;53057;50.988;6.314;2024-01-30T05:44:48;16.37;;;9.90;;
3949;SDS011;53057;50.988;6.314;2024-01-30T05:47:15;21.70;;;10.83;;
3949;SDS011;53057;50.988;6.314;2024-01-30T05:49:42;33.47;;;17.20;;
3949;SDS011;53057;50.988;6.314;2024-01-30T05:52:08;21.70;;;12.17;;
3949;SDS011;53057;50.988;6.314;2024-01-30T05:54:36;23.20;;;15.93;;
3949;SDS011;53057;50.988;6.314;2024-01-30T05:57:03;14.80;;;8.73;;
3949;SDS011;53057;50.988;6.314;2024-01-30T05:59:30;15.47;;;8.57;;
3949;SDS011;53057;50.988;6.314;2024-01-30T06:01:57;15.73;;;8.57;;
3949;SDS011;53057;50.988;6.314;2024-01-30T06:04:24;12.40;;;8.43;;
3949;SDS011;53057;50.988;6.314;2024-01-30T06:06:51;9.80;;;7.10;;
3949;SDS011;53057;50.988;6.314;2024-01-30T06:09:17;17.33;;;8.67;;
3949;SDS011;53057;50.988;6.314;2024-01-30T06:11:44;14.87;;;9.97;;
3949;SDS011;53057;50.988;6.314;2024-01-30T06:14:11;14.13;;;9.73;;
3949;SDS011;53057;50.988;6.314;2024-01-30T06:16:38;22.77;;;10.37;;
3949;SDS011;53057;50.988;6.314;2024-01-30T06:19:04;20.27;;;9.23;;
3949;SDS011;53057;50.988;6.314;2024-01-30T06:21:33;18.87;;;9.77;;
3949;SDS011;53057;50.988;6.314;2024-01-30T06:24:03;13.60;;;8.87;;
3949;SDS011;53057;50.988;6.314;2024-01-30T06:26:30;12.17;;;8.60;;
3949;SDS011;53057;50.988;6.314;2024-01-30T06:28:56;20.93;;;11.70;;
3949;SDS011;53057;50.988;6.314;2024-01-30T06:31:23;23.00;;;9.30;;
3949;SDS011;53057;50.988;6.314;2024-01-30T06:33:50;20.90;;;10.90;;
3949;SDS011;53057;50.988;6.314;2024-01-30T06:36:17;14.20;;;9.00;;
3949;SDS011;53057;50.988;6.314;2024-01-30T06:38:44;15.00;;;8.63;;
3949;SDS011;53057;50.988;6.314;2024-01-30T06:41:11;20.00;;;10.20;;
3949;SDS011;53057;50.988;6.314;2024-01-30T06:43:37;13.97;;;8.60;;
3949;SDS011;53057;50.988;6.314;2024-01-30T06:46:04;21.87;;;12.90;;
3949;SDS011;53057;50.988;6.314;2024-01-30T06:48:31;22.30;;;11.27;;
3949;SDS011;53057;50.988;6.314;2024-01-30T06:50:57;14.40;;;11.33;;
3949;SDS011;53057;50.988;6.314;2024-01-30T06:53:24;15.30;;;9.57;;
3949;SDS011;53057;50.988;6.314;2024-01-30T06:55:53;15.10;;;9.60;;
3949;SDS011;53057;50.988;6.314;2024-01-30T06:58:19;19.03;;;10.70;;
3949;SDS011;53057;50.988;6.314;2024-01-30T07:00:46;25.00;;;11.07;;
3949;SDS011;53057;50.988;6.314;2024-01-30T07:03:13;18.17;;;9.50;;
3949;SDS011;53057;50.988;6.314;2024-01-30T07:05:39;16.17;;;8.60;;
3949;SDS011;53057;50.988;6.314;2024-01-30T07:08:06;18.07;;;10.20;;
3949;SDS011;53057;50.988;6.314;2024-01-30T07:10:33;14.27;;;9.20;;
3949;SDS011;53057;50.988;6.314;2024-01-30T07:13:00;14.33;;;9.90;;
3949;SDS011;53057;50.988;6.314;2024-01-30T07:15:27;12.63;;;8.97;;
3949;SDS011;53057;50.988;6.314;2024-01-30T07:17:54;15.03;;;9.83;;
3949;SDS011;53057;50.988;6.314;2024-01-30T07:20:21;16.67;;;10.57;;
3949;SDS011;53057;50.988;6.314;2024-01-30T07:22:48;24.60;;;11.73;;
3949;SDS011;53057;50.988;6.314;2024-01-30T07:25:15;14.23;;;9.80;;
3949;SDS011;53057;50.988;6.314;2024-01-30T07:27:43;14.20;;;10.87;;
3949;SDS011;53057;50.988;6.314;2024-01-30T07:30:10;24.10;;;11.90;;
3949;SDS011;53057;50.988;6.314;2024-01-30T07:32:36;20.90;;;12.00;;
3949;SDS011;53057;50.988;6.314;2024-01-30T07:35:03;24.13;;;12.63;;
3949;SDS011;53057;50.988;6.314;2024-01-30T07:37:35;20.30;;;11.07;;
3949;SDS011;53057;50.988;6.314;2024-01-30T07:40:02;16.60;;;11.17;;
3949;SDS011;53057;50.988;6.314;2024-01-30T07:42:30;17.13;;;10.10;;
3949;SDS011;53057;50.988;6.314;2024-01-30T07:45:00;15.63;;;10.37;;
3949;SDS011;53057;50.988;6.314;2024-01-30T07:47:26;15.23;;;10.27;;
3949;SDS011;53057;50.988;6.314;2024-01-30T07:49:53;16.67;;;11.20;;
3949;SDS011;53057;50.988;6.314;2024-01-30T07:52:21;18.40;;;9.70;;
3949;SDS011;53057;50.988;6.314;2024-01-30T07:54:47;18.47;;;9.77;;
3949;SDS011;53057;50.988;6.314;2024-01-30T07:57:14;17.73;;;10.83;;
3949;SDS011;53057;50.988;6.314;2024-01-30T07:59:44;17.00;;;11.17;;
3949;SDS011;53057;50.988;6.314;2024-01-30T08:02:13;19.37;;;12.00;;
3949;SDS011;53057;50.988;6.314;2024-01-30T08:04:40;18.30;;;12.17;;
3949;SDS011;53057;50.988;6.314;2024-01-30T08:07:07;19.37;;;13.43;;
3949;SDS011;53057;50.988;6.314;2024-01-30T08:09:34;13.50;;;10.70;;
3949;SDS011;53057;50.988;6.314;2024-01-30T08:12:01;22.00;;;13.33;;
3949;SDS011;53057;50.988;6.314;2024-01-30T08:14:28;20.03;;;12.43;;
3949;SDS011;53057;50.988;6.314;2024-01-30T08:16:55;16.27;;;11.10;;
3949;SDS011;53057;50.988;6.314;2024-01-30T08:19:22;16.37;;;10.80;;
3949;SDS011;53057;50.988;6.314;2024-01-30T08:21:48;20.97;;;11.90;;
3949;SDS011;53057;50.988;6.314;2024-01-30T08:24:15;19.90;;;11.60;;
3949;SDS011;53057;50.988;6.314;2024-01-30T08:26:42;20.83;;;13.23;;
3949;SDS011;53057;50.988;6.314;2024-01-30T08:29:08;23.67;;;12.93;;
3949;SDS011;53057;50.988;6.314;2024-01-30T08:31:35;17.10;;;12.27;;
3949;SDS011;53057;50.988;6.314;2024-01-30T08:34:02;21.47;;;12.30;;
3949;SDS011;53057;50.988;6.314;2024-01-30T08:36:29;23.97;;;14.57;;
3949;SDS011;53057;50.988;6.314;2024-01-30T08:38:56;18.87;;;13.17;;
3949;SDS011;53057;50.988;6.314;2024-01-30T08:41:28;22.43;;;13.00;;
3949;SDS011;53057;50.988;6.314;2024-01-30T08:43:55;19.43;;;12.77;;
3949;SDS011;53057;50.988;6.314;2024-01-30T08:46:22;23.93;;;14.30;;
3949;SDS011;53057;50.988;6.314;2024-01-30T08:48:49;18.70;;;12.77;;
3949;SDS011;53057;50.988;6.314;2024-01-30T08:51:16;24.87;;;14.03;;
3949;SDS011;53057;50.988;6.314;2024-01-30T08:53:42;19.93;;;13.97;;
3949;SDS011;53057;50.988;6.314;2024-01-30T08:56:09;22.97;;;12.67;;
3949;SDS011;53057;50.988;6.314;2024-01-30T08:58:36;19.17;;;12.20;;
3949;SDS011;53057;50.988;6.314;2024-01-30T09:01:03;25.67;;;12.77;;
3949;SDS011;53057;50.988;6.314;2024-01-30T09:03:32;22.63;;;10.77;;
3949;SDS011;53057;50.988;6.314;2024-01-30T09:05:58;20.40;;;12.60;;
3949;SDS011;53057;50.988;6.314;2024-01-30T09:08:25;16.03;;;12.23;;
3949;SDS011;53057;50.988;6.314;2024-01-30T09:10:52;17.97;;;13.00;;
3949;SDS011;53057;50.988;6.314;2024-01-30T09:13:19;16.20;;;10.33;;
3949;SDS011;53057;50.988;6.314;2024-01-30T09:15:46;20.60;;;10.53;;
3949;SDS011;53057;50.988;6.314;2024-01-30T09:18:13;14.43;;;10.00;;
3949;SDS011;53057;50.988;6.314;2024-01-30T09:20:39;15.47;;;10.10;;
3949;SDS011;53057;50.988;6.314;2024-01-30T09:23:06;16.60;;;11.00;;
3949;SDS011;53057;50.988;6.314;2024-01-30T09:25:33;13.63;;;9.80;;
3949;SDS011;53057;50.988;6.314;2024-01-30T09:28:00;15.10;;;10.73;;
3949;SDS011;53057;50.988;6.314;2024-01-30T09:30:27;19.23;;;9.57;;
3949;SDS011;53057;50.988;6.314;2024-01-30T09:32:54;17.57;;;10.50;;
3949;SDS011;53057;50.988;6.314;2024-01-30T09:35:21;17.60;;;9.93;;
3949;SDS011;53057;50.988;6.314;2024-01-30T09:37:48;18.50;;;11.13;;
3949;SDS011;53057;50.988;6.314;2024-01-30T09:40:14;16.83;;;10.37;;
3949;SDS011;53057;50.988;6.314;2024-01-30T09:42:46;16.07;;;11.97;;
3949;SDS011;53057;50.988;6.314;2024-01-30T09:45:13;15.00;;;12.10;;
3949;SDS011;53057;50.988;6.314;2024-01-30T09:47:41;26.23;;;11.90;;
3949;SDS011;53057;50.988;6.314;2024-01-30T09:50:12;22.20;;;13.20;;
3949;SDS011;53057;50.988;6.314;2024-01-30T09:52:42;18.87;;;11.50;;
3949;SDS011;53057;50.988;6.314;2024-01-30T09:55:09;30.87;;;21.60;;
3949;SDS011;53057;50.988;6.314;2024-01-30T09:57:36;22.33;;;8.33;;
3949;SDS011;53057;50.988;6.314;2024-01-30T10:00:03;23.10;;;8.90;;
3949;SDS011;53057;50.988;6.314;2024-01-30T10:02:38;16.80;;;9.07;;
3949;SDS011;53057;50.988;6.314;2024-01-30T10:05:05;12.47;;;8.17;;
3949;SDS011;53057;50.988;6.314;2024-01-30T10:07:32;16.27;;;11.30;;
3949;SDS011;53057;50.988;6.314;2024-01-30T10:09:59;21.13;;;9.23;;
3949;SDS011;53057;50.988;6.314;2024-01-30T10:12:26;20.80;;;8.57;;
3949;SDS011;53057;50.988;6.314;2024-01-30T10:14:55;12.83;;;7.83;;
3949;SDS011;53057;50.988;6.314;2024-01-30T10:17:24;24.13;;;8.43;;
3949;SDS011;53057;50.988;6.314;2024-01-30T10:19:59;13.27;;;8.30;;
3949;SDS011;53057;50.988;6.314;2024-01-30T10:22:26;18.70;;;8.20;;
3949;SDS011;53057;50.988;6.314;2024-01-30T10:24:53;14.43;;;8.10;;
3949;SDS011;53057;50.988;6.314;2024-01-30T10:27:26;19.23;;;9.47;;
3949;SDS011;53057;50.988;6.314;2024-01-30T10:29:53;12.60;;;8.60;;
3949;SDS011;53057;50.988;6.314;2024-01-30T10:32:20;13.20;;;7.47;;
3949;SDS011;53057;50.988;6.314;2024-01-30T10:34:47;13.50;;;7.20;;
3949;SDS011;53057;50.988;6.314;2024-01-30T10:37:15;17.70;;;8.80;;
3949;SDS011;53057;50.988;6.314;2024-01-30T10:39:43;13.83;;;7.57;;
3949;SDS011;53057;50.988;6.314;2024-01-30T10:42:12;13.63;;;7.37;;
3949;SDS011;53057;50.988;6.314;2024-01-30T10:47:11;9.40;;;6.53;;
3949;SDS011;53057;50.988;6.314;2024-01-30T10:49:39;12.37;;;8.53;;
3949;SDS011;53057;50.988;6.314;2024-01-30T10:52:06;12.83;;;8.90;;
3949;SDS011;53057;50.988;6.314;2024-01-30T10:54:34;12.13;;;8.00;;
3949;SDS011;53057;50.988;6.314;2024-01-30T10:57:01;17.73;;;7.50;;
3949;SDS011;53057;50.988;6.314;2024-01-30T10:59:30;15.53;;;7.20;;
3949;SDS011;53057;50.988;6.314;2024-01-30T11:01:58;14.53;;;7.37;;
3949;SDS011;53057;50.988;6.314;2024-01-30T11:04:25;12.93;;;7.27;;
3949;SDS011;53057;50.988;6.314;2024-01-30T11:06:52;10.93;;;6.50;;
3949;SDS011;53057;50.988;6.314;2024-01-30T11:09:20;12.60;;;7.77;;
3949;SDS011;53057;50.988;6.314;2024-01-30T11:11:48;12.80;;;7.73;;
3949;SDS011;53057;50.988;6.314;2024-01-30T11:14:14;10.63;;;7.00;;
3949;SDS011;53057;50.988;6.314;2024-01-30T11:16:41;20.97;;;6.50;;
3949;SDS011;53057;50.988;6.314;2024-01-30T11:19:12;16.83;;;8.17;;
3949;SDS011;53057;50.988;6.314;2024-01-30T11:21:42;16.03;;;7.50;;
3949;SDS011;53057;50.988;6.314;2024-01-30T11:24:09;15.60;;;7.97;;
3949;SDS011;53057;50.988;6.314;2024-01-30T11:26:35;15.70;;;8.10;;
3949;SDS011;53057;50.988;6.314;2024-01-30T11:29:03;14.10;;;7.90;;
3949;SDS011;53057;50.988;6.314;2024-01-30T11:31:29;14.40;;;6.77;;
3949;SDS011;53057;50.988;6.314;2024-01-30T11:33:56;15.80;;;8.00;;
3949;SDS011;53057;50.988;6.314;2024-01-30T11:36:25;14.13;;;8.23;;
3949;SDS011;53057;50.988;6.314;2024-01-30T11:38:52;15.43;;;9.60;;
3949;SDS011;53057;50.988;6.314;2024-01-30T11:41:18;12.57;;;8.70;;
3949;SDS011;53057;50.988;6.314;2024-01-30T11:43:52;16.90;;;8.93;;
3949;SDS011;53057;50.988;6.314;2024-01-30T11:46:19;14.77;;;9.60;;
3949;SDS011;53057;50.988;6.314;2024-01-30T11:48:46;14.37;;;8.50;;
3949;SDS011;53057;50.988;6.314;2024-01-30T11:51:13;25.70;;;9.63;;
3949;SDS011;53057;50.988;6.314;2024-01-30T11:53:41;18.07;;;7.97;;
3949;SDS011;53057;50.988;6.314;2024-01-30T11:56:07;9.37;;;7.27;;
3949;SDS011;53057;50.988;6.314;2024-01-30T11:58:35;15.57;;;9.83;;
3949;SDS011;53057;50.988;6.314;2024-01-30T12:01:02;16.37;;;8.47;;
3949;SDS011;53057;50.988;6.314;2024-01-30T12:03:29;15.97;;;8.90;;
3949;SDS011;53057;50.988;6.314;2024-01-30T12:05:57;15.53;;;8.70;;
3949;SDS011;53057;50.988;6.314;2024-01-30T12:08:26;14.33;;;8.50;;
3949;SDS011;53057;50.988;6.314;2024-01-30T12:10:57;15.07;;;8.43;;
3949;SDS011;53057;50.988;6.314;2024-01-30T12:13:31;24.57;;;10.80;;
3949;SDS011;53057;50.988;6.314;2024-01-30T12:15:59;27.50;;;10.30;;
3949;SDS011;53057;50.988;6.314;2024-01-30T12:18:27;16.67;;;10.97;;
3949;SDS011;53057;50.988;6.314;2024-01-30T12:21:00;17.90;;;9.43;;
3949;SDS011;53057;50.988;6.314;2024-01-30T12:23:27;16.73;;;10.50;;
3949;SDS011;53057;50.988;6.314;2024-01-30T12:25:55;14.43;;;9.10;;
3949;SDS011;53057;50.988;6.314;2024-01-30T12:28:21;20.60;;;9.60;;
3949;SDS011;53057;50.988;6.314;2024-01-30T12:30:48;15.30;;;10.40;;
3949;SDS011;53057;50.988;6.314;2024-01-30T12:33:18;19.10;;;9.97;;
3949;SDS011;53057;50.988;6.314;2024-01-30T12:35:45;24.97;;;12.20;;
3949;SDS011;53057;50.988;6.314;2024-01-30T12:38:27;14.93;;;8.60;;
3949;SDS011;53057;50.988;6.314;2024-01-30T12:40:55;20.17;;;11.60;;
3949;SDS011;53057;50.988;6.314;2024-01-30T12:43:23;22.93;;;11.07;;
3949;SDS011;53057;50.988;6.314;2024-01-30T12:46:03;38.50;;;20.93;;
3949;SDS011;53057;50.988;6.314;2024-01-30T12:48:30;22.77;;;13.93;;
3949;SDS011;53057;50.988;6.314;2024-01-30T12:50:57;19.50;;;9.30;;
3949;SDS011;53057;50.988;6.314;2024-01-30T12:53:24;16.90;;;10.50;;
3949;SDS011;53057;50.988;6.314;2024-01-30T12:55:51;20.63;;;12.03;;
3949;SDS011;53057;50.988;6.314;2024-01-30T12:58:17;21.53;;;10.03;;
3949;SDS011;53057;50.988;6.314;2024-01-30T13:00:44;25.70;;;12.23;;
3949;SDS011;53057;50.988;6.314;2024-01-30T13:03:11;25.23;;;12.07;;
3949;SDS011;53057;50.988;6.314;2024-01-30T13:05:38;19.30;;;10.17;;
3949;SDS011;53057;50.988;6.314;2024-01-30T13:08:05;16.73;;;10.93;;
3949;SDS011;53057;50.988;6.314;2024-01-30T13:10:32;19.20;;;10.90;;
3949;SDS011;53057;50.988;6.314;2024-01-30T13:12:59;19.47;;;10.70;;
3949;SDS011;53057;50.988;6.314;2024-01-30T13:15:26;15.30;;;10.73;;
3949;SDS011;53057;50.988;6.314;2024-01-30T13:17:53;27.97;;;12.53;;
3949;SDS011;53057;50.988;6.314;2024-01-30T13:20:21;29.43;;;16.83;;
3949;SDS011;53057;50.988;6.314;2024-01-30T13:22:48;21.40;;;14.63;;
3949;SDS011;53057;50.988;6.314;2024-01-30T13:25:16;27.47;;;11.40;;
3949;SDS011;53057;50.988;6.314;2024-01-30T13:27:43;24.87;;;10.80;;
3949;SDS011;53057;50.988;6.314;2024-01-30T13:30:10;15.50;;;9.80;;
3949;SDS011;53057;50.988;6.314;2024-01-30T13:32:37;35.37;;;13.27;;
3949;SDS011;53057;50.988;6.314;2024-01-30T13:35:04;20.70;;;11.37;;
3949;SDS011;53057;50.988;6.314;2024-01-30T13:37:31;20.60;;;11.77;;
3949;SDS011;53057;50.988;6.314;2024-01-30T13:39:58;22.70;;;11.90;;
3949;SDS011;53057;50.988;6.314;2024-01-30T13:42:25;21.60;;;12.90;;
3949;SDS011;53057;50.988;6.314;2024-01-30T13:44:52;24.80;;;11.57;;
3949;SDS011;53057;50.988;6.314;2024-01-30T13:47:19;27.93;;;10.53;;
3949;SDS011;53057;50.988;6.314;2024-01-30T13:49:48;28.67;;;12.77;;
3949;SDS011;53057;50.988;6.314;2024-01-30T13:52:15;20.73;;;11.97;;
3949;SDS011;53057;50.988;6.314;2024-01-30T13:54:42;24.37;;;13.57;;
3949;SDS011;53057;50.988;6.314;2024-01-30T13:57:09;19.30;;;10.20;;
3949;SDS011;53057;50.988;6.314;2024-01-30T13:59:37;19.20;;;11.47;;
3949;SDS011;53057;50.988;6.314;2024-01-30T14:02:05;19.20;;;12.60;;
3949;SDS011;53057;50.988;6.314;2024-01-30T14:04:33;27.60;;;13.50;;
3949;SDS011;53057;50.988;6.314;2024-01-30T14:07:00;27.60;;;12.13;;
3949;SDS011;53057;50.988;6.314;2024-01-30T14:09:31;25.60;;;12.60;;
3949;SDS011;53057;50.988;6.314;2024-01-30T14:11:59;20.73;;;12.63;;
3949;SDS011;53057;50.988;6.314;2024-01-30T14:14:25;19.80;;;14.27;;
3949;SDS011;53057;50.988;6.314;2024-01-30T14:16:52;27.10;;;13.97;;
3949;SDS011;53057;50.988;6.314;2024-01-30T14:19:19;23.90;;;13.53;;
3949;SDS011;53057;50.988;6.314;2024-01-30T14:21:46;23.63;;;14.03;;
3949;SDS011;53057;50.988;6.314;2024-01-30T14:24:13;22.50;;;13.53;;
3949;SDS011;53057;50.988;6.314;2024-01-30T14:26:39;24.03;;;13.03;;
3949;SDS011;53057;50.988;6.314;2024-01-30T14:29:06;25.37;;;14.17;;
3949;SDS011;53057;50.988;6.314;2024-01-30T14:31:33;20.47;;;13.13;;
3949;SDS011;53057;50.988;6.314;2024-01-30T14:34:00;21.90;;;14.47;;
3949;SDS011;53057;50.988;6.314;2024-01-30T14:36:27;23.97;;;13.83;;
3949;SDS011;53057;50.988;6.314;2024-01-30T14:38:55;19.17;;;11.67;;
3949;SDS011;53057;50.988;6.314;2024-01-30T14:41:21;29.60;;;13.80;;